sensor_id;sensor_type;location;lat;lon;timestamp;P1;durP1;ratioP1;P2;durP2;ratioP2
22826;SDS011;11580;52.562;13.418;2023-11-18T00:02:00;5.57;;;5.07;;
22826;SDS011;11580;52.562;13.418;2023-11-18T00:04:27;5.33;;;4.83;;
22826;SDS011;11580;52.562;13.418;2023-11-18T00:06:54;5.97;;;5.47;;
22826;SDS011;11580;52.562;13.418;2023-11-18T00:09:22;5.17;;;4.77;;
22826;SDS011;11580;52.562;13.418;2023-11-18T00:11:51;5.70;;;5.30;;
22826;SDS011;11580;52.562;13.418;2023-11-18T00:14:19;5.10;;;4.70;;
22826;SDS011;11580;52.562;13.418;2023-11-18T00:16:46;5.83;;;5.33;;
22826;SDS011;11580;52.562;13.418;2023-11-18T00:19:13;5.87;;;5.40;;
22826;SDS011;11580;52.562;13.418;2023-11-18T00:21:41;5.17;;;4.67;;
22826;SDS011;11580;52.562;13.418;2023-11-18T00:24:09;4.93;;;4.53;;
22826;SDS011;11580;52.562;13.418;2023-11-18T00:26:36;6.13;;;5.63;;
22826;SDS011;11580;52.562;13.418;2023-11-18T00:29:06;5.23;;;4.87;;
22826;SDS011;11580;52.562;13.418;2023-11-18T00:31:33;5.10;;;4.70;;
22826;SDS011;11580;52.562;13.418;2023-11-18T00:34:01;5.23;;;4.77;;
22826;SDS011;11580;52.562;13.418;2023-11-18T00:36:29;5.97;;;5.53;;
22826;SDS011;11580;52.562;13.418;2023-11-18T00:38:56;5.43;;;4.93;;
22826;SDS011;11580;52.562;13.418;2023-11-18T00:41:23;5.03;;;4.60;;
22826;SDS011;11580;52.562;13.418;2023-11-18T00:43:51;5.07;;;4.67;;
22826;SDS011;11580;52.562;13.418;2023-11-18T00:46:20;5.63;;;5.03;;
22826;SDS011;11580;52.562;13.418;2023-11-18T00:48:47;5.67;;;5.27;;
22826;SDS011;11580;52.562;13.418;2023-11-18T00:51:15;5.07;;;4.67;;
22826;SDS011;11580;52.562;13.418;2023-11-18T00:53:43;6.10;;;5.50;;
22826;SDS011;11580;52.562;13.418;2023-11-18T00:56:12;5.30;;;4.80;;
22826;SDS011;11580;52.562;13.418;2023-11-18T00:58:43;5.47;;;5.07;;
22826;SDS011;11580;52.562;13.418;2023-11-18T01:01:10;6.40;;;5.80;;
22826;SDS011;11580;52.562;13.418;2023-11-18T01:03:39;5.70;;;5.30;;
22826;SDS011;11580;52.562;13.418;2023-11-18T01:06:07;5.60;;;5.10;;
22826;SDS011;11580;52.562;13.418;2023-11-18T01:08:34;5.70;;;5.30;;
22826;SDS011;11580;52.562;13.418;2023-11-18T01:11:01;5.70;;;5.30;;
22826;SDS011;11580;52.562;13.418;2023-11-18T01:13:29;5.60;;;5.10;;
22826;SDS011;11580;52.562;13.418;2023-11-18T01:15:57;5.47;;;4.97;;
22826;SDS011;11580;52.562;13.418;2023-11-18T01:18:24;5.13;;;4.73;;
22826;SDS011;11580;52.562;13.418;2023-11-18T01:20:53;5.40;;;5.00;;
22826;SDS011;11580;52.562;13.418;2023-11-18T01:23:20;5.70;;;5.20;;
22826;SDS011;11580;52.562;13.418;2023-11-18T01:25:47;6.23;;;5.63;;
22826;SDS011;11580;52.562;13.418;2023-11-18T01:28:16;6.17;;;5.67;;
22826;SDS011;11580;52.562;13.418;2023-11-18T01:30:43;6.10;;;5.60;;
22826;SDS011;11580;52.562;13.418;2023-11-18T01:33:10;5.90;;;5.27;;
22826;SDS011;11580;52.562;13.418;2023-11-18T01:35:40;5.50;;;5.00;;
22826;SDS011;11580;52.562;13.418;2023-11-18T01:38:09;5.93;;;5.43;;
22826;SDS011;11580;52.562;13.418;2023-11-18T01:40:37;5.30;;;4.80;;
22826;SDS011;11580;52.562;13.418;2023-11-18T01:43:04;5.27;;;4.77;;
22826;SDS011;11580;52.562;13.418;2023-11-18T01:45:37;5.30;;;4.90;;
22826;SDS011;11580;52.562;13.418;2023-11-18T01:48:05;6.03;;;5.57;;
22826;SDS011;11580;52.562;13.418;2023-11-18T01:50:35;5.43;;;4.97;;
22826;SDS011;11580;52.562;13.418;2023-11-18T01:53:03;5.33;;;4.93;;
22826;SDS011;11580;52.562;13.418;2023-11-18T01:55:34;5.13;;;4.73;;
22826;SDS011;11580;52.562;13.418;2023-11-18T01:58:01;5.30;;;4.93;;
22826;SDS011;11580;52.562;13.418;2023-11-18T02:00:33;5.33;;;4.93;;
22826;SDS011;11580;52.562;13.418;2023-11-18T02:03:03;5.03;;;4.63;;
22826;SDS011;11580;52.562;13.418;2023-11-18T02:05:31;4.27;;;3.97;;
22826;SDS011;11580;52.562;13.418;2023-11-18T02:08:00;5.40;;;5.00;;
22826;SDS011;11580;52.562;13.418;2023-11-18T02:10:33;5.20;;;4.80;;
22826;SDS011;11580;52.562;13.418;2023-11-18T02:13:06;5.43;;;4.93;;
22826;SDS011;11580;52.562;13.418;2023-11-18T02:15:44;5.60;;;5.20;;
22826;SDS011;11580;52.562;13.418;2023-11-18T02:18:12;5.77;;;5.27;;
22826;SDS011;11580;52.562;13.418;2023-11-18T02:20:43;5.67;;;5.17;;
22826;SDS011;11580;52.562;13.418;2023-11-18T02:23:12;5.80;;;5.30;;
22826;SDS011;11580;52.562;13.418;2023-11-18T02:25:43;5.50;;;5.00;;
22826;SDS011;11580;52.562;13.418;2023-11-18T02:28:14;5.37;;;4.97;;
22826;SDS011;11580;52.562;13.418;2023-11-18T02:30:41;6.73;;;6.03;;
22826;SDS011;11580;52.562;13.418;2023-11-18T02:33:11;5.50;;;5.10;;
22826;SDS011;11580;52.562;13.418;2023-11-18T02:35:46;5.53;;;5.03;;
22826;SDS011;11580;52.562;13.418;2023-11-18T02:38:22;6.00;;;5.40;;
22826;SDS011;11580;52.562;13.418;2023-11-18T02:40:58;5.77;;;5.33;;
22826;SDS011;11580;52.562;13.418;2023-11-18T02:43:34;5.53;;;5.03;;
22826;SDS011;11580;52.562;13.418;2023-11-18T02:46:03;6.00;;;5.47;;
22826;SDS011;11580;52.562;13.418;2023-11-18T02:48:32;6.10;;;5.60;;
22826;SDS011;11580;52.562;13.418;2023-11-18T02:51:01;6.20;;;5.67;;
22826;SDS011;11580;52.562;13.418;2023-11-18T02:53:28;6.10;;;5.60;;
22826;SDS011;11580;52.562;13.418;2023-11-18T02:55:55;5.83;;;5.33;;
22826;SDS011;11580;52.562;13.418;2023-11-18T02:58:29;5.67;;;5.27;;
22826;SDS011;11580;52.562;13.418;2023-11-18T03:00:56;5.53;;;5.03;;
22826;SDS011;11580;52.562;13.418;2023-11-18T03:03:25;6.60;;;6.10;;
22826;SDS011;11580;52.562;13.418;2023-11-18T03:05:52;5.97;;;5.37;;
22826;SDS011;11580;52.562;13.418;2023-11-18T03:08:20;5.10;;;4.70;;
22826;SDS011;11580;52.562;13.418;2023-11-18T03:10:48;5.47;;;4.97;;
22826;SDS011;11580;52.562;13.418;2023-11-18T03:13:17;5.43;;;5.03;;
22826;SDS011;11580;52.562;13.418;2023-11-18T03:15:46;5.83;;;5.20;;
22826;SDS011;11580;52.562;13.418;2023-11-18T03:18:13;5.23;;;4.73;;
22826;SDS011;11580;52.562;13.418;2023-11-18T03:20:42;5.73;;;5.23;;
22826;SDS011;11580;52.562;13.418;2023-11-18T03:23:09;5.43;;;5.03;;
22826;SDS011;11580;52.562;13.418;2023-11-18T03:25:36;5.20;;;4.80;;
22826;SDS011;11580;52.562;13.418;2023-11-18T03:28:04;4.80;;;4.40;;
22826;SDS011;11580;52.562;13.418;2023-11-18T03:30:32;4.90;;;4.50;;
22826;SDS011;11580;52.562;13.418;2023-11-18T03:33:03;4.80;;;4.40;;
22826;SDS011;11580;52.562;13.418;2023-11-18T03:35:30;5.60;;;5.10;;
22826;SDS011;11580;52.562;13.418;2023-11-18T03:37:58;4.67;;;4.27;;
22826;SDS011;11580;52.562;13.418;2023-11-18T03:40:25;5.50;;;5.10;;
22826;SDS011;11580;52.562;13.418;2023-11-18T03:42:54;5.47;;;5.00;;
22826;SDS011;11580;52.562;13.418;2023-11-18T03:45:21;5.17;;;4.70;;
22826;SDS011;11580;52.562;13.418;2023-11-18T03:47:49;5.77;;;5.30;;
22826;SDS011;11580;52.562;13.418;2023-11-18T03:50:18;5.17;;;4.67;;
22826;SDS011;11580;52.562;13.418;2023-11-18T03:52:45;4.37;;;3.97;;
22826;SDS011;11580;52.562;13.418;2023-11-18T03:55:13;5.00;;;4.60;;
22826;SDS011;11580;52.562;13.418;2023-11-18T03:57:40;4.63;;;4.30;;
22826;SDS011;11580;52.562;13.418;2023-11-18T04:00:07;4.73;;;4.27;;
22826;SDS011;11580;52.562;13.418;2023-11-18T04:02:38;5.23;;;4.73;;
22826;SDS011;11580;52.562;13.418;2023-11-18T04:05:06;4.93;;;4.50;;
22826;SDS011;11580;52.562;13.418;2023-11-18T04:07:36;5.17;;;4.10;;
22826;SDS011;11580;52.562;13.418;2023-11-18T04:10:08;4.60;;;4.20;;
22826;SDS011;11580;52.562;13.418;2023-11-18T04:12:36;4.67;;;4.30;;
22826;SDS011;11580;52.562;13.418;2023-11-18T04:15:04;5.03;;;4.73;;
22826;SDS011;11580;52.562;13.418;2023-11-18T04:17:32;4.53;;;4.20;;
22826;SDS011;11580;52.562;13.418;2023-11-18T04:20:00;4.80;;;4.10;;
22826;SDS011;11580;52.562;13.418;2023-11-18T04:22:30;4.73;;;4.37;;
22826;SDS011;11580;52.562;13.418;2023-11-18T04:24:58;5.13;;;4.63;;
22826;SDS011;11580;52.562;13.418;2023-11-18T04:27:25;4.80;;;4.30;;
22826;SDS011;11580;52.562;13.418;2023-11-18T04:29:53;5.30;;;4.80;;
22826;SDS011;11580;52.562;13.418;2023-11-18T04:32:20;4.70;;;4.27;;
22826;SDS011;11580;52.562;13.418;2023-11-18T04:34:47;5.17;;;4.77;;
22826;SDS011;11580;52.562;13.418;2023-11-18T04:37:16;5.83;;;5.33;;
22826;SDS011;11580;52.562;13.418;2023-11-18T04:39:43;5.63;;;4.97;;
22826;SDS011;11580;52.562;13.418;2023-11-18T04:42:12;6.20;;;5.10;;
22826;SDS011;11580;52.562;13.418;2023-11-18T04:44:40;6.10;;;5.60;;
22826;SDS011;11580;52.562;13.418;2023-11-18T04:47:08;5.80;;;5.30;;
22826;SDS011;11580;52.562;13.418;2023-11-18T04:49:35;6.17;;;5.57;;
22826;SDS011;11580;52.562;13.418;2023-11-18T04:52:02;5.13;;;4.73;;
22826;SDS011;11580;52.562;13.418;2023-11-18T04:54:30;6.27;;;5.60;;
22826;SDS011;11580;52.562;13.418;2023-11-18T04:56:57;6.43;;;5.07;;
22826;SDS011;11580;52.562;13.418;2023-11-18T04:59:24;5.20;;;4.70;;
22826;SDS011;11580;52.562;13.418;2023-11-18T05:01:51;5.77;;;5.27;;
22826;SDS011;11580;52.562;13.418;2023-11-18T05:04:19;5.60;;;5.20;;
22826;SDS011;11580;52.562;13.418;2023-11-18T05:06:46;6.07;;;5.50;;
22826;SDS011;11580;52.562;13.418;2023-11-18T05:09:13;5.83;;;5.33;;
22826;SDS011;11580;52.562;13.418;2023-11-18T05:11:43;6.07;;;5.60;;
22826;SDS011;11580;52.562;13.418;2023-11-18T05:14:11;5.37;;;4.93;;
22826;SDS011;11580;52.562;13.418;2023-11-18T05:16:40;5.97;;;5.47;;
22826;SDS011;11580;52.562;13.418;2023-11-18T05:19:07;5.73;;;5.20;;
22826;SDS011;11580;52.562;13.418;2023-11-18T05:21:35;5.67;;;5.17;;
22826;SDS011;11580;52.562;13.418;2023-11-18T05:24:02;5.80;;;5.30;;
22826;SDS011;11580;52.562;13.418;2023-11-18T05:26:31;6.23;;;5.73;;
22826;SDS011;11580;52.562;13.418;2023-11-18T05:29:00;6.60;;;6.00;;
22826;SDS011;11580;52.562;13.418;2023-11-18T05:31:27;5.90;;;5.30;;
22826;SDS011;11580;52.562;13.418;2023-11-18T05:33:58;6.63;;;5.83;;
22826;SDS011;11580;52.562;13.418;2023-11-18T05:36:27;6.60;;;5.37;;
22826;SDS011;11580;52.562;13.418;2023-11-18T05:39:02;8.07;;;6.10;;
22826;SDS011;11580;52.562;13.418;2023-11-18T05:41:30;5.27;;;4.87;;
22826;SDS011;11580;52.562;13.418;2023-11-18T05:44:00;5.83;;;5.33;;
22826;SDS011;11580;52.562;13.418;2023-11-18T05:46:27;6.77;;;6.23;;
22826;SDS011;11580;52.562;13.418;2023-11-18T05:48:55;6.10;;;5.57;;
22826;SDS011;11580;52.562;13.418;2023-11-18T05:51:24;6.30;;;5.70;;
22826;SDS011;11580;52.562;13.418;2023-11-18T05:53:54;5.93;;;5.40;;
22826;SDS011;11580;52.562;13.418;2023-11-18T05:56:21;5.50;;;5.00;;
22826;SDS011;11580;52.562;13.418;2023-11-18T05:58:49;6.23;;;5.73;;
22826;SDS011;11580;52.562;13.418;2023-11-18T06:01:18;5.70;;;5.20;;
22826;SDS011;11580;52.562;13.418;2023-11-18T06:03:46;5.77;;;5.27;;
22826;SDS011;11580;52.562;13.418;2023-11-18T06:06:13;5.47;;;5.07;;
22826;SDS011;11580;52.562;13.418;2023-11-18T06:08:43;6.00;;;5.37;;
22826;SDS011;11580;52.562;13.418;2023-11-18T06:11:12;6.13;;;5.60;;
22826;SDS011;11580;52.562;13.418;2023-11-18T06:13:41;7.03;;;6.33;;
22826;SDS011;11580;52.562;13.418;2023-11-18T06:16:14;6.40;;;5.87;;
22826;SDS011;11580;52.562;13.418;2023-11-18T06:18:45;6.50;;;5.90;;
22826;SDS011;11580;52.562;13.418;2023-11-18T06:21:15;6.20;;;5.60;;
22826;SDS011;11580;52.562;13.418;2023-11-18T06:23:45;6.43;;;5.83;;
22826;SDS011;11580;52.562;13.418;2023-11-18T06:26:14;5.67;;;5.17;;
22826;SDS011;11580;52.562;13.418;2023-11-18T06:28:42;6.07;;;5.57;;
22826;SDS011;11580;52.562;13.418;2023-11-18T06:31:11;5.93;;;5.43;;
22826;SDS011;11580;52.562;13.418;2023-11-18T06:33:39;6.67;;;6.07;;
22826;SDS011;11580;52.562;13.418;2023-11-18T06:36:08;7.30;;;6.60;;
22826;SDS011;11580;52.562;13.418;2023-11-18T06:38:37;6.77;;;6.17;;
22826;SDS011;11580;52.562;13.418;2023-11-18T06:41:07;6.40;;;5.80;;
22826;SDS011;11580;52.562;13.418;2023-11-18T06:43:37;7.23;;;5.73;;
22826;SDS011;11580;52.562;13.418;2023-11-18T06:46:17;7.20;;;6.60;;
22826;SDS011;11580;52.562;13.418;2023-11-18T06:48:49;7.70;;;6.90;;
22826;SDS011;11580;52.562;13.418;2023-11-18T06:51:19;7.23;;;6.53;;
22826;SDS011;11580;52.562;13.418;2023-11-18T06:53:48;8.10;;;6.50;;
22826;SDS011;11580;52.562;13.418;2023-11-18T06:56:17;7.13;;;6.20;;
22826;SDS011;11580;52.562;13.418;2023-11-18T06:58:44;6.80;;;6.20;;
22826;SDS011;11580;52.562;13.418;2023-11-18T07:01:12;6.27;;;5.67;;
22826;SDS011;11580;52.562;13.418;2023-11-18T07:03:40;7.40;;;6.70;;
22826;SDS011;11580;52.562;13.418;2023-11-18T07:06:09;7.10;;;6.40;;
22826;SDS011;11580;52.562;13.418;2023-11-18T07:08:39;7.20;;;6.60;;
22826;SDS011;11580;52.562;13.418;2023-11-18T07:11:06;6.80;;;6.20;;
22826;SDS011;11580;52.562;13.418;2023-11-18T07:13:35;7.40;;;6.73;;
22826;SDS011;11580;52.562;13.418;2023-11-18T07:16:04;6.43;;;5.70;;
22826;SDS011;11580;52.562;13.418;2023-11-18T07:18:34;8.60;;;7.80;;
22826;SDS011;11580;52.562;13.418;2023-11-18T07:21:02;8.40;;;6.87;;
22826;SDS011;11580;52.562;13.418;2023-11-18T07:23:30;8.10;;;7.30;;
22826;SDS011;11580;52.562;13.418;2023-11-18T07:25:58;7.97;;;7.07;;
22826;SDS011;11580;52.562;13.418;2023-11-18T07:28:25;7.60;;;6.90;;
22826;SDS011;11580;52.562;13.418;2023-11-18T07:30:54;7.53;;;6.73;;
22826;SDS011;11580;52.562;13.418;2023-11-18T07:33:23;7.97;;;7.17;;
22826;SDS011;11580;52.562;13.418;2023-11-18T07:35:51;7.90;;;7.10;;
22826;SDS011;11580;52.562;13.418;2023-11-18T07:38:19;7.90;;;7.13;;
22826;SDS011;11580;52.562;13.418;2023-11-18T07:40:46;10.43;;;8.10;;
22826;SDS011;11580;52.562;13.418;2023-11-18T07:43:13;7.83;;;7.03;;
22826;SDS011;11580;52.562;13.418;2023-11-18T07:45:41;9.53;;;8.73;;
22826;SDS011;11580;52.562;13.418;2023-11-18T07:48:10;8.40;;;7.60;;
22826;SDS011;11580;52.562;13.418;2023-11-18T07:50:42;9.23;;;8.33;;
22826;SDS011;11580;52.562;13.418;2023-11-18T07:53:10;8.33;;;7.53;;
22826;SDS011;11580;52.562;13.418;2023-11-18T07:55:37;8.40;;;7.50;;
22826;SDS011;11580;52.562;13.418;2023-11-18T07:58:04;7.17;;;6.17;;
22826;SDS011;11580;52.562;13.418;2023-11-18T08:00:35;8.27;;;7.47;;
22826;SDS011;11580;52.562;13.418;2023-11-18T08:03:04;7.70;;;7.00;;
22826;SDS011;11580;52.562;13.418;2023-11-18T08:05:38;8.80;;;7.03;;
22826;SDS011;11580;52.562;13.418;2023-11-18T08:08:05;8.00;;;7.30;;
22826;SDS011;11580;52.562;13.418;2023-11-18T08:10:33;7.63;;;6.90;;
22826;SDS011;11580;52.562;13.418;2023-11-18T08:13:03;7.83;;;7.03;;
22826;SDS011;11580;52.562;13.418;2023-11-18T08:15:32;7.43;;;6.73;;
22826;SDS011;11580;52.562;13.418;2023-11-18T08:17:59;6.73;;;6.10;;
22826;SDS011;11580;52.562;13.418;2023-11-18T08:20:26;7.27;;;6.53;;
22826;SDS011;11580;52.562;13.418;2023-11-18T08:22:55;8.80;;;6.77;;
22826;SDS011;11580;52.562;13.418;2023-11-18T08:25:22;6.10;;;5.60;;
22826;SDS011;11580;52.562;13.418;2023-11-18T08:27:50;7.13;;;6.43;;
22826;SDS011;11580;52.562;13.418;2023-11-18T08:30:18;6.77;;;6.17;;
22826;SDS011;11580;52.562;13.418;2023-11-18T08:32:46;9.77;;;7.40;;
22826;SDS011;11580;52.562;13.418;2023-11-18T08:35:14;6.80;;;6.30;;
22826;SDS011;11580;52.562;13.418;2023-11-18T08:37:41;7.40;;;6.37;;
22826;SDS011;11580;52.562;13.418;2023-11-18T08:40:12;6.87;;;6.27;;
22826;SDS011;11580;52.562;13.418;2023-11-18T08:42:41;6.07;;;5.57;;
22826;SDS011;11580;52.562;13.418;2023-11-18T08:45:14;6.80;;;6.20;;
22826;SDS011;11580;52.562;13.418;2023-11-18T08:47:44;6.20;;;5.60;;
22826;SDS011;11580;52.562;13.418;2023-11-18T08:50:12;8.33;;;5.97;;
22826;SDS011;11580;52.562;13.418;2023-11-18T08:52:41;5.30;;;4.80;;
22826;SDS011;11580;52.562;13.418;2023-11-18T08:55:13;6.53;;;5.93;;
22826;SDS011;11580;52.562;13.418;2023-11-18T08:57:45;6.57;;;5.97;;
22826;SDS011;11580;52.562;13.418;2023-11-18T09:00:23;6.60;;;6.00;;
22826;SDS011;11580;52.562;13.418;2023-11-18T09:03:12;6.57;;;5.97;;
22826;SDS011;11580;52.562;13.418;2023-11-18T09:05:50;6.50;;;5.90;;
22826;SDS011;11580;52.562;13.418;2023-11-18T09:08:25;6.20;;;5.60;;
22826;SDS011;11580;52.562;13.418;2023-11-18T09:10:56;6.77;;;6.17;;
22826;SDS011;11580;52.562;13.418;2023-11-18T09:13:25;6.23;;;5.63;;
22826;SDS011;11580;52.562;13.418;2023-11-18T09:15:55;6.43;;;5.73;;
22826;SDS011;11580;52.562;13.418;2023-11-18T09:18:23;7.73;;;6.40;;
22826;SDS011;11580;52.562;13.418;2023-11-18T09:20:51;5.60;;;5.10;;
22826;SDS011;11580;52.562;13.418;2023-11-18T09:23:20;6.43;;;5.90;;
22826;SDS011;11580;52.562;13.418;2023-11-18T09:25:50;6.30;;;5.80;;
22826;SDS011;11580;52.562;13.418;2023-11-18T09:28:20;5.83;;;5.33;;
22826;SDS011;11580;52.562;13.418;2023-11-18T09:30:49;6.00;;;5.50;;
22826;SDS011;11580;52.562;13.418;2023-11-18T09:33:19;5.73;;;5.23;;
22826;SDS011;11580;52.562;13.418;2023-11-18T09:35:58;6.20;;;5.60;;
22826;SDS011;11580;52.562;13.418;2023-11-18T09:38:26;5.70;;;5.20;;
22826;SDS011;11580;52.562;13.418;2023-11-18T09:40:54;5.30;;;4.90;;
22826;SDS011;11580;52.562;13.418;2023-11-18T09:43:25;5.70;;;5.20;;
22826;SDS011;11580;52.562;13.418;2023-11-18T09:45:54;5.40;;;4.90;;
22826;SDS011;11580;52.562;13.418;2023-11-18T09:48:34;5.83;;;5.33;;
22826;SDS011;11580;52.562;13.418;2023-11-18T09:51:06;5.57;;;5.07;;
22826;SDS011;11580;52.562;13.418;2023-11-18T09:53:35;4.70;;;4.30;;
22826;SDS011;11580;52.562;13.418;2023-11-18T09:56:07;6.20;;;5.67;;
22826;SDS011;11580;52.562;13.418;2023-11-18T09:58:48;5.73;;;5.23;;
22826;SDS011;11580;52.562;13.418;2023-11-18T10:01:33;6.47;;;5.83;;
22826;SDS011;11580;52.562;13.418;2023-11-18T10:04:08;5.30;;;4.83;;
22826;SDS011;11580;52.562;13.418;2023-11-18T10:06:36;5.77;;;5.27;;
22826;SDS011;11580;52.562;13.418;2023-11-18T10:09:06;5.40;;;4.93;;
22826;SDS011;11580;52.562;13.418;2023-11-18T10:11:42;4.47;;;4.17;;
22826;SDS011;11580;52.562;13.418;2023-11-18T10:14:13;5.03;;;4.37;;
22826;SDS011;11580;52.562;13.418;2023-11-18T10:16:42;4.23;;;3.73;;
22826;SDS011;11580;52.562;13.418;2023-11-18T10:19:12;4.67;;;4.27;;
22826;SDS011;11580;52.562;13.418;2023-11-18T10:21:42;4.60;;;4.20;;
22826;SDS011;11580;52.562;13.418;2023-11-18T10:24:13;4.20;;;3.90;;
22826;SDS011;11580;52.562;13.418;2023-11-18T10:26:44;4.60;;;4.23;;
22826;SDS011;11580;52.562;13.418;2023-11-18T10:29:21;4.70;;;4.30;;
22826;SDS011;11580;52.562;13.418;2023-11-18T10:32:01;4.30;;;3.90;;
22826;SDS011;11580;52.562;13.418;2023-11-18T10:34:33;4.20;;;3.90;;
22826;SDS011;11580;52.562;13.418;2023-11-18T10:37:01;4.57;;;4.17;;
22826;SDS011;11580;52.562;13.418;2023-11-18T10:39:29;5.27;;;4.63;;
22826;SDS011;11580;52.562;13.418;2023-11-18T10:42:00;4.40;;;4.10;;
22826;SDS011;11580;52.562;13.418;2023-11-18T10:44:29;4.50;;;4.10;;
22826;SDS011;11580;52.562;13.418;2023-11-18T10:46:56;5.03;;;4.57;;
22826;SDS011;11580;52.562;13.418;2023-11-18T10:49:24;5.50;;;5.00;;
22826;SDS011;11580;52.562;13.418;2023-11-18T10:51:53;5.57;;;5.17;;
22826;SDS011;11580;52.562;13.418;2023-11-18T10:54:22;5.37;;;4.93;;
22826;SDS011;11580;52.562;13.418;2023-11-18T10:56:51;6.50;;;6.00;;
22826;SDS011;11580;52.562;13.418;2023-11-18T10:59:21;6.13;;;5.57;;
22826;SDS011;11580;52.562;13.418;2023-11-18T11:01:51;5.50;;;5.10;;
22826;SDS011;11580;52.562;13.418;2023-11-18T11:04:23;4.60;;;4.20;;
22826;SDS011;11580;52.562;13.418;2023-11-18T11:06:50;5.33;;;4.83;;
22826;SDS011;11580;52.562;13.418;2023-11-18T11:09:22;4.30;;;3.90;;
22826;SDS011;11580;52.562;13.418;2023-11-18T11:11:53;4.10;;;3.80;;
22826;SDS011;11580;52.562;13.418;2023-11-18T11:14:25;4.57;;;4.17;;
22826;SDS011;11580;52.562;13.418;2023-11-18T11:17:05;4.40;;;4.03;;
22826;SDS011;11580;52.562;13.418;2023-11-18T11:19:39;4.47;;;4.07;;
22826;SDS011;11580;52.562;13.418;2023-11-18T11:22:22;4.93;;;4.53;;
22826;SDS011;11580;52.562;13.418;2023-11-18T11:24:59;5.03;;;4.63;;
22826;SDS011;11580;52.562;13.418;2023-11-18T11:27:38;5.10;;;4.50;;
22826;SDS011;11580;52.562;13.418;2023-11-18T11:30:20;4.83;;;4.43;;
22826;SDS011;11580;52.562;13.418;2023-11-18T11:32:52;4.37;;;4.03;;
22826;SDS011;11580;52.562;13.418;2023-11-18T11:35:30;3.83;;;3.53;;
22826;SDS011;11580;52.562;13.418;2023-11-18T11:38:03;4.10;;;3.80;;
22826;SDS011;11580;52.562;13.418;2023-11-18T11:40:35;3.97;;;3.67;;
22826;SDS011;11580;52.562;13.418;2023-11-18T11:43:04;4.00;;;3.70;;
22826;SDS011;11580;52.562;13.418;2023-11-18T11:45:36;3.50;;;3.20;;
22826;SDS011;11580;52.562;13.418;2023-11-18T11:48:06;4.50;;;4.10;;
22826;SDS011;11580;52.562;13.418;2023-11-18T11:50:44;5.80;;;5.30;;
22826;SDS011;11580;52.562;13.418;2023-11-18T11:53:39;5.77;;;5.27;;
22826;SDS011;11580;52.562;13.418;2023-11-18T11:56:11;6.20;;;5.70;;
22826;SDS011;11580;52.562;13.418;2023-11-18T11:58:46;5.97;;;5.47;;
22826;SDS011;11580;52.562;13.418;2023-11-18T12:01:27;6.23;;;5.63;;
22826;SDS011;11580;52.562;13.418;2023-11-18T12:04:04;6.27;;;5.70;;
22826;SDS011;11580;52.562;13.418;2023-11-18T12:06:37;6.60;;;6.10;;
22826;SDS011;11580;52.562;13.418;2023-11-18T12:09:09;6.73;;;6.13;;
22826;SDS011;11580;52.562;13.418;2023-11-18T12:11:44;7.03;;;6.30;;
22826;SDS011;11580;52.562;13.418;2023-11-18T12:14:14;6.63;;;6.07;;
22826;SDS011;11580;52.562;13.418;2023-11-18T12:17:03;7.20;;;6.70;;
22826;SDS011;11580;52.562;13.418;2023-11-18T12:19:38;7.33;;;6.73;;
22826;SDS011;11580;52.562;13.418;2023-11-18T12:22:13;7.23;;;6.63;;
22826;SDS011;11580;52.562;13.418;2023-11-18T12:24:45;6.43;;;5.90;;
22826;SDS011;11580;52.562;13.418;2023-11-18T12:27:42;7.27;;;6.53;;
22826;SDS011;11580;52.562;13.418;2023-11-18T12:33:09;5.50;;;5.10;;
22826;SDS011;11580;52.562;13.418;2023-11-18T12:35:49;5.93;;;5.43;;
22826;SDS011;11580;52.562;13.418;2023-11-18T12:45:42;4.70;;;4.23;;
22826;SDS011;11580;52.562;13.418;2023-11-18T12:48:52;4.87;;;4.47;;
22826;SDS011;11580;52.562;13.418;2023-11-18T12:51:26;5.10;;;4.70;;
22826;SDS011;11580;52.562;13.418;2023-11-18T12:53:56;5.07;;;4.67;;
22826;SDS011;11580;52.562;13.418;2023-11-18T12:56:24;4.60;;;4.20;;
22826;SDS011;11580;52.562;13.418;2023-11-18T12:58:53;6.03;;;5.43;;
22826;SDS011;11580;52.562;13.418;2023-11-18T13:01:21;5.17;;;4.67;;
22826;SDS011;11580;52.562;13.418;2023-11-18T13:03:50;5.57;;;5.07;;
22826;SDS011;11580;52.562;13.418;2023-11-18T13:06:18;5.70;;;5.17;;
22826;SDS011;11580;52.562;13.418;2023-11-18T13:08:49;5.20;;;4.80;;
22826;SDS011;11580;52.562;13.418;2023-11-18T13:11:16;5.83;;;5.23;;
22826;SDS011;11580;52.562;13.418;2023-11-18T13:13:43;4.50;;;4.20;;
22826;SDS011;11580;52.562;13.418;2023-11-18T13:16:12;5.10;;;4.50;;
22826;SDS011;11580;52.562;13.418;2023-11-18T13:18:41;4.87;;;4.50;;
22826;SDS011;11580;52.562;13.418;2023-11-18T13:21:13;6.73;;;4.80;;
22826;SDS011;11580;52.562;13.418;2023-11-18T13:23:45;5.50;;;5.00;;
22826;SDS011;11580;52.562;13.418;2023-11-18T13:26:14;5.00;;;4.60;;
22826;SDS011;11580;52.562;13.418;2023-11-18T13:28:45;5.17;;;4.73;;
22826;SDS011;11580;52.562;13.418;2023-11-18T13:31:13;4.40;;;3.97;;
22826;SDS011;11580;52.562;13.418;2023-11-18T13:33:41;5.07;;;4.57;;
22826;SDS011;11580;52.562;13.418;2023-11-18T13:36:10;5.17;;;4.70;;
22826;SDS011;11580;52.562;13.418;2023-11-18T13:38:38;6.20;;;5.70;;
22826;SDS011;11580;52.562;13.418;2023-11-18T13:41:07;5.30;;;4.80;;
22826;SDS011;11580;52.562;13.418;2023-11-18T13:43:42;5.80;;;5.30;;
22826;SDS011;11580;52.562;13.418;2023-11-18T13:46:11;5.07;;;4.57;;
22826;SDS011;11580;52.562;13.418;2023-11-18T13:48:39;7.23;;;5.50;;
22826;SDS011;11580;52.562;13.418;2023-11-18T13:51:07;5.53;;;5.03;;
22826;SDS011;11580;52.562;13.418;2023-11-18T13:53:39;5.73;;;5.23;;
22826;SDS011;11580;52.562;13.418;2023-11-18T13:56:08;6.17;;;5.57;;
22826;SDS011;11580;52.562;13.418;2023-11-18T13:58:36;6.80;;;6.13;;
22826;SDS011;11580;52.562;13.418;2023-11-18T14:01:06;6.40;;;5.80;;
22826;SDS011;11580;52.562;13.418;2023-11-18T14:03:36;6.40;;;5.87;;
22826;SDS011;11580;52.562;13.418;2023-11-18T14:06:05;5.60;;;5.10;;
22826;SDS011;11580;52.562;13.418;2023-11-18T14:08:35;5.63;;;5.03;;
22826;SDS011;11580;52.562;13.418;2023-11-18T14:11:03;4.70;;;4.30;;
22826;SDS011;11580;52.562;13.418;2023-11-18T14:13:31;5.10;;;4.30;;
22826;SDS011;11580;52.562;13.418;2023-11-18T14:16:00;5.30;;;4.90;;
22826;SDS011;11580;52.562;13.418;2023-11-18T14:18:30;5.00;;;4.50;;
22826;SDS011;11580;52.562;13.418;2023-11-18T14:20:57;4.37;;;3.97;;
22826;SDS011;11580;52.562;13.418;2023-11-18T14:23:25;4.60;;;4.30;;
22826;SDS011;11580;52.562;13.418;2023-11-18T14:25:53;4.93;;;4.50;;
22826;SDS011;11580;52.562;13.418;2023-11-18T14:28:20;5.70;;;5.20;;
22826;SDS011;11580;52.562;13.418;2023-11-18T14:30:50;5.60;;;5.10;;
22826;SDS011;11580;52.562;13.418;2023-11-18T14:33:17;4.90;;;4.50;;
22826;SDS011;11580;52.562;13.418;2023-11-18T14:35:46;5.67;;;5.07;;
22826;SDS011;11580;52.562;13.418;2023-11-18T14:38:13;5.17;;;4.70;;
22826;SDS011;11580;52.562;13.418;2023-11-18T14:40:40;5.70;;;5.20;;
22826;SDS011;11580;52.562;13.418;2023-11-18T14:43:07;5.30;;;4.90;;
22826;SDS011;11580;52.562;13.418;2023-11-18T14:45:35;5.10;;;4.60;;
22826;SDS011;11580;52.562;13.418;2023-11-18T14:48:02;5.50;;;5.00;;
22826;SDS011;11580;52.562;13.418;2023-11-18T14:50:30;5.27;;;4.77;;
22826;SDS011;11580;52.562;13.418;2023-11-18T14:52:58;5.63;;;5.13;;
22826;SDS011;11580;52.562;13.418;2023-11-18T14:55:26;5.70;;;5.20;;
22826;SDS011;11580;52.562;13.418;2023-11-18T14:57:54;7.13;;;6.47;;
22826;SDS011;11580;52.562;13.418;2023-11-18T15:00:21;6.37;;;5.67;;